Time;durP1;ratioP1;P1;durP2;ratioP2;P2;SDS_P1;SDS_P2;PMS_P1;PMS_P2;Temp;Humidity;BMP_temperature;BMP_pressure;BME280_temperature;BME280_humidity;BME280_pressure;Samples;Min_cycle;Max_cycle;Signal;HPM_P1;HPM_P2
2022/05/18 00:01:59;;;;;;;4.72;2.72;;;19.70;99.90;;;;;;5036281;28;20059;-86
2022/05/18 00:04:25;;;;;;;3.30;2.30;;;19.70;99.90;;;;;;5017741;28;20057;-86
2022/05/18 00:06:51;;;;;;;6.95;2.60;;;19.60;99.90;;;;;;5038986;28;20029;-86
2022/05/18 00:09:17;;;;;;;4.38;2.15;;;19.70;99.90;;;;;;5028147;28;20031;-86
2022/05/18 00:11:45;;;;;;;2.63;2.08;;;19.70;99.90;;;;;;5022642;28;20033;-86
2022/05/18 00:14:11;;;;;;;3.08;2.00;;;19.70;99.90;;;;;;5045738;28;20040;-86
2022/05/18 00:16:40;;;;;;;3.78;2.40;;;19.70;99.90;;;;;;5040001;28;20053;-86
2022/05/18 00:19:08;;;;;;;5.75;2.13;;;19.70;99.90;;;;;;5021226;28;20043;-87
2022/05/18 00:21:51;;;;;;;3.92;2.15;;;19.70;99.90;;;;;;5041685;28;20033;-87
2022/05/18 00:24:16;;;;;;;4.97;2.05;;;19.70;99.90;;;;;;5035497;28;20084;-86
2022/05/18 00:26:42;;;;;;;4.60;1.98;;;19.80;99.90;;;;;;5040109;28;20475;-86
2022/05/18 00:29:08;;;;;;;2.92;2.05;;;19.90;99.90;;;;;;5038180;28;20100;-87
2022/05/18 00:31:57;;;;;;;3.88;2.00;;;19.90;99.90;;;;;;5041584;28;20099;-86
2022/05/18 00:34:25;;;;;;;3.85;2.03;;;20.00;99.90;;;;;;5021303;28;20069;-86
2022/05/18 00:36:54;;;;;;;5.50;1.83;;;20.00;99.90;;;;;;5024386;28;20029;-86
2022/05/18 00:39:23;;;;;;;4.10;2.20;;;20.00;99.90;;;;;;5018968;28;20039;-86
2022/05/18 00:41:48;;;;;;;2.35;2.08;;;20.10;99.90;;;;;;5035746;28;20020;-85
2022/05/18 00:44:30;;;;;;;4.55;2.15;;;20.10;99.90;;;;;;5036385;28;20033;-86
2022/05/18 00:46:55;;;;;;;4.90;2.15;;;20.10;99.90;;;;;;5020490;28;20494;-86
2022/05/18 00:49:24;;;;;;;13.55;2.20;;;20.20;99.90;;;;;;5036992;28;20037;-86
2022/05/18 00:51:54;;;;;;;5.15;2.15;;;20.30;99.90;;;;;;5038616;28;20033;-87
2022/05/18 00:54:29;;;;;;;3.42;2.00;;;20.20;99.90;;;;;;5045433;28;20051;-87
2022/05/18 00:57:07;;;;;;;8.13;2.17;;;20.20;99.90;;;;;;5020777;28;20506;-87
2022/05/18 00:59:46;;;;;;;5.65;2.30;;;20.20;99.90;;;;;;5018213;28;20033;-87
2022/05/18 01:02:13;;;;;;;4.20;2.30;;;20.20;99.90;;;;;;5039081;28;20022;-87
2022/05/18 01:04:42;;;;;;;3.45;2.10;;;20.20;99.90;;;;;;5034152;28;20040;-86
2022/05/18 01:07:26;;;;;;;3.40;2.50;;;20.20;99.90;;;;;;5018590;28;20055;-86
2022/05/18 01:09:52;;;;;;;5.97;2.28;;;20.20;99.90;;;;;;5019997;28;20040;-86
2022/05/18 01:12:20;;;;;;;5.32;2.50;;;20.20;99.90;;;;;;5021523;28;20030;-86
2022/05/18 01:14:51;;;;;;;3.35;2.10;;;20.20;99.90;;;;;;5033522;28;20071;-84
2022/05/18 01:17:25;;;;;;;7.78;2.17;;;20.10;99.90;;;;;;5040103;28;20029;-85
2022/05/18 01:19:56;;;;;;;5.75;2.75;;;20.20;99.90;;;;;;5041669;28;20064;-85
2022/05/18 01:22:41;;;;;;;6.38;2.60;;;20.10;99.90;;;;;;5017203;28;20383;-85
2022/05/18 01:25:31;;;;;;;4.75;2.78;;;20.10;99.90;;;;;;5043781;28;20049;-87
2022/05/18 01:28:05;;;;;;;6.28;2.97;;;20.00;99.90;;;;;;5022583;28;20025;-86
2022/05/18 01:30:33;;;;;;;3.75;2.05;;;20.10;99.90;;;;;;5034426;28;20029;-86
2022/05/18 01:33:17;;;;;;;5.68;2.67;;;20.10;99.90;;;;;;5022357;28;20120;-88
2022/05/18 01:35:48;;;;;;;5.28;2.42;;;20.20;99.90;;;;;;5026862;28;20029;-86
2022/05/18 01:38:15;;;;;;;4.15;2.50;;;20.20;99.90;;;;;;5028365;28;20370;-85
2022/05/18 01:41:01;;;;;;;10.02;2.78;;;20.20;99.90;;;;;;5034680;28;20495;-86
2022/05/18 01:43:59;;;;;;;3.85;2.67;;;20.20;99.90;;;;;;5022859;28;20107;-87
2022/05/18 01:46:27;;;;;;;5.60;2.65;;;20.10;99.90;;;;;;5021706;28;20071;-84
2022/05/18 01:48:53;;;;;;;5.65;3.10;;;20.10;99.90;;;;;;5035136;28;20347;-86
2022/05/18 01:52:10;;;;;;;3.17;2.50;;;20.00;99.90;;;;;;5018237;28;20618;-85
2022/05/18 01:54:41;;;;;;;6.93;2.80;;;20.00;99.90;;;;;;4975828;28;20125;-88
2022/05/18 01:57:06;;;;;;;7.28;2.90;;;19.90;99.90;;;;;;5021142;28;20430;-87
2022/05/18 01:59:33;;;;;;;4.68;2.88;;;19.80;99.90;;;;;;5040007;28;20104;-87
2022/05/18 02:01:58;;;;;;;6.85;2.70;;;19.80;99.90;;;;;;5039667;28;20022;-86
2022/05/18 02:04:24;;;;;;;3.28;2.85;;;19.80;99.90;;;;;;5040888;28;20029;-86
2022/05/18 02:06:50;;;;;;;6.72;2.78;;;19.80;99.90;;;;;;5039298;28;20026;-85
2022/05/18 02:09:19;;;;;;;8.05;2.90;;;19.70;99.90;;;;;;5035723;28;20048;-86
2022/05/18 02:11:45;;;;;;;13.30;3.25;;;19.80;99.90;;;;;;5040661;28;20021;-85
2022/05/18 02:14:11;;;;;;;7.80;2.55;;;19.80;99.90;;;;;;5044292;28;20467;-86
2022/05/18 02:16:37;;;;;;;3.80;2.85;;;19.80;99.90;;;;;;5038356;28;20057;-85
2022/05/18 02:19:03;;;;;;;6.85;3.35;;;19.70;99.90;;;;;;5044369;28;20033;-86
2022/05/18 02:21:29;;;;;;;4.32;3.05;;;19.70;99.90;;;;;;5037703;28;20028;-86
2022/05/18 02:23:58;;;;;;;6.72;3.13;;;19.70;99.90;;;;;;5040463;28;20033;-86
2022/05/18 02:26:24;;;;;;;4.00;3.10;;;19.70;99.90;;;;;;5040060;28;21031;-86
2022/05/18 02:28:50;;;;;;;6.55;2.80;;;19.60;99.90;;;;;;5036346;28;20071;-86
2022/05/18 02:31:29;;;;;;;4.28;2.83;;;19.60;99.90;;;;;;5038061;28;20047;-86
2022/05/18 02:33:55;;;;;;;4.25;2.70;;;19.50;99.90;;;;;;5036142;28;20017;-83
2022/05/18 02:36:21;;;;;;;4.60;2.90;;;19.50;99.90;;;;;;5019676;28;20544;-86
2022/05/18 02:38:50;;;;;;;7.03;3.22;;;19.50;99.90;;;;;;5018614;28;20037;-84
2022/05/18 02:41:21;;;;;;;6.07;2.92;;;19.50;99.90;;;;;;5036481;28;20024;-84
2022/05/18 02:43:46;;;;;;;6.40;3.10;;;19.50;99.90;;;;;;5041585;28;20056;-85
2022/05/18 02:46:16;;;;;;;4.63;3.10;;;19.50;99.90;;;;;;5043143;28;20049;-86
2022/05/18 02:48:43;;;;;;;3.78;3.08;;;19.40;99.90;;;;;;5039353;28;20408;-87
2022/05/18 02:51:10;;;;;;;3.35;2.85;;;19.40;99.90;;;;;;5023863;28;20524;-86
2022/05/18 02:53:39;;;;;;;6.28;3.05;;;19.30;99.90;;;;;;5043437;28;20112;-87
2022/05/18 02:56:08;;;;;;;7.03;3.03;;;19.30;99.90;;;;;;5022490;28;20060;-87
2022/05/18 02:58:42;;;;;;;5.95;2.72;;;19.30;99.90;;;;;;5041411;28;20044;-86
2022/05/18 03:01:11;;;;;;;11.70;3.08;;;19.30;99.90;;;;;;5020651;28;20024;-85
2022/05/18 03:03:40;;;;;;;10.63;3.50;;;19.30;99.90;;;;;;5025894;28;20075;-85
2022/05/18 03:06:08;;;;;;;5.03;2.70;;;19.30;99.90;;;;;;5040279;28;20506;-86
2022/05/18 03:08:39;;;;;;;9.05;3.17;;;19.20;99.90;;;;;;5016643;28;20029;-86
2022/05/18 03:11:05;;;;;;;5.35;2.80;;;19.20;99.90;;;;;;5044456;28;20078;-85
2022/05/18 03:13:31;;;;;;;4.90;2.88;;;19.10;99.90;;;;;;5043717;28;20029;-86
2022/05/18 03:15:57;;;;;;;8.90;3.10;;;19.10;99.90;;;;;;5042218;28;20030;-86
2022/05/18 03:18:24;;;;;;;6.03;2.70;;;19.00;99.90;;;;;;5024833;28;20565;-86
2022/05/18 03:23:34;;;;;;;4.45;3.30;;;19.10;99.90;;;;;;5041813;28;20075;-87
2022/05/18 03:26:10;;;;;;;4.45;3.00;;;19.20;99.90;;;;;;5039107;28;20045;-87
2022/05/18 03:28:40;;;;;;;4.47;3.45;;;19.20;99.90;;;;;;5042114;28;20388;-87
2022/05/18 03:31:06;;;;;;;4.82;3.13;;;19.20;99.90;;;;;;5045275;28;20040;-86
2022/05/18 03:33:32;;;;;;;6.38;3.38;;;19.30;99.90;;;;;;5043278;28;20059;-86
2022/05/18 03:35:58;;;;;;;6.28;2.88;;;19.20;99.90;;;;;;5041340;28;20476;-86
2022/05/18 03:38:24;;;;;;;5.65;3.53;;;19.20;99.90;;;;;;5042485;28;20048;-87
2022/05/18 03:40:50;;;;;;;4.38;2.90;;;19.20;99.90;;;;;;5042607;28;20056;-86
2022/05/18 03:43:17;;;;;;;4.68;3.17;;;19.20;99.90;;;;;;5041448;28;20064;-86
2022/05/18 03:45:43;;;;;;;8.80;3.20;;;19.20;99.90;;;;;;5028351;28;20018;-85
2022/05/18 03:48:11;;;;;;;7.13;2.88;;;19.20;99.90;;;;;;5043346;28;20078;-86
2022/05/18 03:50:38;;;;;;;3.28;2.97;;;19.20;99.90;;;;;;5025941;28;20492;-85
2022/05/18 03:53:06;;;;;;;3.58;2.83;;;19.20;99.90;;;;;;5041448;28;20052;-86
2022/05/18 03:55:31;;;;;;;5.32;3.30;;;19.20;99.90;;;;;;5044966;28;20478;-86
2022/05/18 03:57:57;;;;;;;6.53;3.20;;;19.20;99.90;;;;;;5023542;28;20125;-86
2022/05/18 04:00:23;;;;;;;6.07;2.90;;;19.20;99.90;;;;;;5028086;28;20054;-86
2022/05/18 04:02:49;;;;;;;4.50;3.15;;;19.20;99.90;;;;;;5040273;28;20025;-86
2022/05/18 04:05:17;;;;;;;10.43;3.03;;;19.10;99.90;;;;;;5021472;28;20378;-87
2022/05/18 04:07:43;;;;;;;8.02;3.30;;;19.10;99.90;;;;;;5040037;28;20078;-86
2022/05/18 04:10:10;;;;;;;4.63;3.17;;;19.10;99.90;;;;;;5045248;28;20418;-86
2022/05/18 04:12:36;;;;;;;4.03;3.20;;;19.20;99.90;;;;;;5023595;28;20387;-88
2022/05/18 04:15:02;;;;;;;10.93;3.08;;;19.20;99.90;;;;;;5038292;28;20029;-87
2022/05/18 04:17:28;;;;;;;9.38;3.05;;;19.40;99.90;;;;;;5039405;28;20040;-86
2022/05/18 04:19:54;;;;;;;4.85;2.90;;;19.50;99.90;;;;;;5042355;28;20029;-86
2022/05/18 04:22:25;;;;;;;12.60;2.80;;;19.60;99.90;;;;;;5039852;28;20025;-86
2022/05/18 04:24:51;;;;;;;5.47;2.90;;;19.70;99.90;;;;;;5024765;28;20209;-85
2022/05/18 04:27:18;;;;;;;6.85;3.00;;;19.80;99.90;;;;;;5040278;28;20029;-86
2022/05/18 04:29:43;;;;;;;10.27;3.13;;;20.00;99.90;;;;;;5015652;28;20069;-86
2022/05/18 04:32:10;;;;;;;9.63;3.78;;;20.10;99.90;;;;;;5039551;28;20044;-85
2022/05/18 04:34:36;;;;;;;6.82;3.45;;;20.20;99.90;;;;;;5040407;28;20083;-86
2022/05/18 04:37:02;;;;;;;5.32;2.90;;;20.20;99.90;;;;;;5040698;28;20119;-87
2022/05/18 04:39:28;;;;;;;6.07;2.95;;;20.20;99.90;;;;;;5037576;28;20061;-86
2022/05/18 04:41:54;;;;;;;5.40;3.10;;;20.30;99.90;;;;;;5040916;28;20049;-85
2022/05/18 04:44:20;;;;;;;7.88;2.95;;;20.30;99.90;;;;;;5041338;28;20029;-85
2022/05/18 04:46:45;;;;;;;8.13;2.80;;;20.30;99.90;;;;;;5040538;28;20023;-85
2022/05/18 04:49:19;;;;;;;5.53;2.80;;;20.30;99.90;;;;;;5044743;28;20072;-86
2022/05/18 04:51:44;;;;;;;7.13;2.97;;;20.30;99.90;;;;;;5039288;28;20108;-88
2022/05/18 04:54:10;;;;;;;8.18;3.47;;;20.30;99.90;;;;;;5043416;28;20116;-87
2022/05/18 04:56:39;;;;;;;5.07;2.65;;;20.30;99.90;;;;;;5039671;28;20041;-85
2022/05/18 04:59:05;;;;;;;10.45;3.08;;;20.40;99.90;;;;;;5046052;28;20067;-87
2022/05/18 05:01:30;;;;;;;3.78;2.55;;;20.40;99.90;;;;;;5041283;28;20025;-87
2022/05/18 05:03:56;;;;;;;3.92;2.83;;;20.40;99.90;;;;;;5037137;28;20033;-87
2022/05/18 05:06:25;;;;;;;6.60;3.17;;;20.40;99.90;;;;;;5021969;28;20029;-86
2022/05/18 05:08:50;;;;;;;9.35;2.60;;;20.50;99.90;;;;;;5019578;28;20123;-86
2022/05/18 05:11:16;;;;;;;4.60;2.83;;;20.50;99.90;;;;;;5038739;28;20032;-85
2022/05/18 05:13:42;;;;;;;5.05;3.17;;;20.60;99.90;;;;;;5024430;28;20025;-90
2022/05/18 05:16:10;;;;;;;6.50;3.08;;;20.60;99.90;;;;;;5027416;28;20118;-85
2022/05/18 05:18:37;;;;;;;6.80;2.60;;;20.50;99.90;;;;;;5023251;28;20034;-87
2022/05/18 05:21:02;;;;;;;5.90;2.65;;;20.60;99.90;;;;;;5045369;28;20052;-88
2022/05/18 05:23:28;;;;;;;4.00;2.80;;;20.80;99.90;;;;;;5027801;28;20056;-88
2022/05/18 05:25:55;;;;;;;6.80;2.50;;;20.90;99.90;;;;;;5045223;28;20056;-88
2022/05/18 05:28:31;;;;;;;3.63;2.22;;;21.10;99.90;;;;;;5044366;28;20034;-85
2022/05/18 05:31:09;;;;;;;9.45;2.72;;;21.20;99.90;;;;;;5042134;28;20017;-87
2022/05/18 05:33:36;;;;;;;2.50;2.30;;;21.20;99.90;;;;;;5044047;28;20034;-85
2022/05/18 05:36:05;;;;;;;6.38;2.60;;;21.20;99.90;;;;;;5021850;28;20026;-90
2022/05/18 05:38:34;;;;;;;5.72;2.80;;;21.10;99.90;;;;;;5038776;28;20037;-86
2022/05/18 05:41:01;;;;;;;3.67;2.83;;;21.10;99.90;;;;;;5019045;28;20029;-87
2022/05/18 05:43:31;;;;;;;5.97;3.05;;;21.00;99.90;;;;;;5037897;28;20028;-86
2022/05/18 05:46:03;;;;;;;5.50;2.70;;;21.00;99.90;;;;;;5018414;28;20481;-88
2022/05/18 05:48:30;;;;;;;4.47;2.50;;;21.00;99.90;;;;;;5035603;28;20041;-87
2022/05/18 05:50:57;;;;;;;4.28;2.67;;;21.10;99.90;;;;;;5014777;28;20449;-90
2022/05/18 05:53:24;;;;;;;9.85;2.53;;;21.10;99.90;;;;;;5036578;28;20053;-89
2022/05/18 05:55:50;;;;;;;13.90;2.80;;;21.10;99.90;;;;;;5038608;28;20027;-89
2022/05/18 05:58:36;;;;;;;7.55;2.97;;;21.10;99.90;;;;;;5036557;28;20045;-87
2022/05/18 06:01:04;;;;;;;4.63;2.90;;;21.10;99.90;;;;;;5029650;28;20464;-88
2022/05/18 06:03:31;;;;;;;7.68;2.35;;;21.20;99.90;;;;;;5034144;28;20175;-89
2022/05/18 06:05:56;;;;;;;5.63;2.47;;;21.30;99.90;;;;;;5038644;28;20025;-88
2022/05/18 06:08:26;;;;;;;3.95;2.50;;;21.40;99.90;;;;;;5034521;28;20386;-86
2022/05/18 06:10:52;;;;;;;7.63;2.60;;;21.40;99.90;;;;;;5035557;28;20021;-88
2022/05/18 06:13:18;;;;;;;6.32;2.53;;;21.40;99.90;;;;;;5037407;28;20079;-88
2022/05/18 06:15:43;;;;;;;7.53;2.67;;;21.50;99.90;;;;;;5042356;28;20564;-89
2022/05/18 06:18:11;;;;;;;8.95;2.63;;;21.50;99.90;;;;;;5044369;28;20056;-89
2022/05/18 06:20:37;;;;;;;4.20;2.70;;;21.60;99.90;;;;;;5023905;28;20025;-91
2022/05/18 06:23:07;;;;;;;6.32;2.60;;;21.80;99.90;;;;;;5041738;28;20031;-87
2022/05/18 06:25:33;;;;;;;6.97;2.72;;;21.90;99.90;;;;;;5038041;28;20105;-89
2022/05/18 06:27:59;;;;;;;10.15;2.60;;;21.80;99.90;;;;;;5044507;28;20026;-93
2022/05/18 06:30:26;;;;;;;10.50;2.75;;;21.90;99.90;;;;;;5025227;28;20166;-88
2022/05/18 06:32:53;;;;;;;6.07;2.65;;;22.00;99.90;;;;;;5021905;28;20029;-91
2022/05/18 06:35:19;;;;;;;4.20;2.22;;;22.00;99.90;;;;;;5050405;28;20024;-90
2022/05/18 06:37:45;;;;;;;4.55;2.38;;;22.00;99.90;;;;;;5044447;28;20029;-88
2022/05/18 06:40:11;;;;;;;6.40;2.75;;;22.00;99.90;;;;;;5034260;28;20380;-91
2022/05/18 06:42:38;;;;;;;7.90;2.38;;;22.00;99.90;;;;;;5042891;28;20044;-89
2022/05/18 06:45:05;;;;;;;5.22;2.58;;;22.10;99.90;;;;;;5046983;28;20103;-86
2022/05/18 06:47:31;;;;;;;3.00;2.38;;;22.20;99.90;;;;;;5042138;28;20179;-87
2022/05/18 06:49:57;;;;;;;7.97;2.50;;;22.30;99.90;;;;;;5044311;28;20573;-88
2022/05/18 06:52:23;;;;;;;5.97;2.63;;;22.40;99.90;;;;;;5037545;28;20495;-88
2022/05/18 06:54:50;;;;;;;11.57;2.60;;;22.60;99.90;;;;;;5040912;28;20033;-87
2022/05/18 06:57:16;;;;;;;9.02;2.80;;;22.80;99.90;;;;;;5042571;28;20021;-87
2022/05/18 06:59:41;;;;;;;7.55;2.58;;;22.90;99.90;;;;;;5041086;28;20056;-88
2022/05/18 07:02:07;;;;;;;14.60;2.80;;;23.10;99.90;;;;;;5037488;28;20021;-87
2022/05/18 07:04:33;;;;;;;9.98;2.58;;;23.20;99.90;;;;;;5046506;28;20033;-86
2022/05/18 07:07:02;;;;;;;5.90;2.28;;;23.30;99.90;;;;;;5042745;28;20468;-90
2022/05/18 07:09:28;;;;;;;6.63;2.20;;;23.20;99.90;;;;;;5036896;28;20079;-88
2022/05/18 07:11:55;;;;;;;11.60;2.65;;;23.00;99.90;;;;;;5042413;28;20017;-87
2022/05/18 07:14:28;;;;;;;9.40;3.17;;;23.00;99.90;;;;;;5045710;28;20033;-87
2022/05/18 07:16:54;;;;;;;5.72;2.65;;;23.00;99.90;;;;;;5039035;28;20021;-92
2022/05/18 07:19:20;;;;;;;6.82;2.50;;;23.10;99.90;;;;;;5036300;28;20030;-87
2022/05/18 07:21:50;;;;;;;9.30;2.38;;;23.00;99.90;;;;;;5036688;28;20539;-86
2022/05/18 07:24:16;;;;;;;7.97;2.88;;;23.00;99.90;;;;;;5035311;28;20029;-87
2022/05/18 07:26:43;;;;;;;3.25;2.50;;;23.00;99.90;;;;;;5020075;28;20461;-88
2022/05/18 07:29:10;;;;;;;7.40;2.30;;;23.00;99.90;;;;;;5023247;28;20025;-87
2022/05/18 07:34:23;;;;;;;3.20;2.10;;;23.00;99.90;;;;;;5044206;28;20094;-91
2022/05/18 07:36:54;;;;;;;4.97;1.95;;;23.00;99.90;;;;;;5038516;28;20119;-90
2022/05/18 07:39:19;;;;;;;5.45;2.03;;;23.00;99.90;;;;;;5021110;28;20057;-89
2022/05/18 07:41:48;;;;;;;5.20;2.20;;;22.90;99.90;;;;;;5041110;28;20484;-88
2022/05/18 07:44:14;;;;;;;7.93;2.80;;;23.00;99.90;;;;;;5039719;28;20017;-88
2022/05/18 07:46:40;;;;;;;10.05;2.40;;;22.90;99.90;;;;;;5041982;28;20036;-88
2022/05/18 07:49:07;;;;;;;6.32;2.75;;;23.00;99.90;;;;;;5038651;28;20095;-86
2022/05/18 07:51:33;;;;;;;7.68;2.50;;;23.00;99.90;;;;;;5040631;28;20033;-87
2022/05/18 07:53:59;;;;;;;5.00;2.17;;;23.10;99.90;;;;;;5044445;28;20018;-88
2022/05/18 07:56:25;;;;;;;4.20;2.03;;;23.10;99.90;;;;;;5023815;28;20073;-87
2022/05/18 07:58:51;;;;;;;7.50;2.03;;;23.20;99.90;;;;;;5025434;28;20052;-87
2022/05/18 08:01:17;;;;;;;7.63;2.55;;;23.30;99.90;;;;;;5042582;28;20021;-86
2022/05/18 08:03:42;;;;;;;8.80;2.08;;;23.40;99.90;;;;;;5035087;28;20047;-88
2022/05/18 08:06:10;;;;;;;7.13;2.38;;;23.30;99.90;;;;;;5035446;28;20100;-90
2022/05/18 08:08:36;;;;;;;3.55;2.03;;;23.30;99.90;;;;;;5021899;28;20036;-88
2022/05/18 08:16:31;;;;;;;5.63;2.40;;;23.30;99.90;;;;;;5040400;28;20147;-88
2022/05/18 08:18:58;;;;;;;4.22;2.20;;;23.20;99.90;;;;;;5039605;28;20025;-85
2022/05/18 08:21:23;;;;;;;5.95;2.42;;;23.20;99.90;;;;;;5044034;28;20044;-91
2022/05/18 08:23:49;;;;;;;5.63;2.10;;;23.30;99.90;;;;;;5039700;28;20056;-86
2022/05/18 08:26:16;;;;;;;6.53;2.00;;;23.40;99.90;;;;;;5034151;28;20029;-88
2022/05/18 08:28:42;;;;;;;4.60;2.00;;;23.40;99.90;;;;;;5035147;28;20543;-90
2022/05/18 08:31:08;;;;;;;2.70;1.83;;;23.40;99.90;;;;;;5021222;28;20116;-89
2022/05/18 08:33:34;;;;;;;3.90;2.30;;;23.50;99.90;;;;;;5038827;28;20041;-87
2022/05/18 08:36:04;;;;;;;3.45;2.10;;;23.50;99.90;;;;;;5035886;28;20121;-87
2022/05/18 08:38:31;;;;;;;6.30;2.17;;;23.60;99.90;;;;;;5039790;28;20045;-83
2022/05/18 08:41:10;;;;;;;4.13;2.08;;;23.70;99.90;;;;;;5036200;28;20045;-84
2022/05/18 08:43:42;;;;;;;5.10;2.10;;;23.70;99.90;;;;;;5041791;28;20029;-84
2022/05/18 08:46:23;;;;;;;;;;;23.70;99.90;;;;;;5042506;28;20029;-83
2022/05/18 08:49:06;;;;;;;4.07;2.08;;;23.70;99.90;;;;;;5037573;28;20398;-83
2022/05/18 08:51:48;;;;;;;6.05;1.98;;;23.80;99.90;;;;;;5022434;28;20369;-85
2022/05/18 08:55:05;;;;;;;10.13;2.40;;;23.80;99.90;;;;;;5038443;28;20037;-85
2022/05/18 08:57:42;;;;;;;12.90;2.80;;;23.90;99.90;;;;;;4979386;28;20207;-85
2022/05/18 09:00:23;;;;;;;13.07;4.43;;;23.90;99.90;;;;;;5039055;28;20102;-86
2022/05/18 09:03:02;;;;;;;10.15;3.72;;;24.00;99.90;;;;;;5035069;28;20013;-87
2022/05/18 09:05:45;;;;;;;4.95;1.95;;;24.00;99.90;;;;;;5025947;28;20036;-85
2022/05/18 09:08:25;;;;;;;4.05;2.53;;;24.00;99.90;;;;;;5041603;28;20029;-83
2022/05/18 09:11:09;;;;;;;7.72;2.50;;;24.10;99.90;;;;;;5030392;28;20041;-85
2022/05/18 09:13:36;;;;;;;4.40;2.00;;;24.20;99.90;;;;;;5043707;28;20064;-84
2022/05/18 09:16:28;;;;;;;5.30;2.20;;;24.20;99.90;;;;;;5042199;28;20036;-85
2022/05/18 09:19:11;;;;;;;3.25;2.30;;;24.20;99.90;;;;;;5041515;28;20033;-83
2022/05/18 09:22:04;;;;;;;5.13;1.92;;;24.30;99.90;;;;;;5039350;28;20116;-85
2022/05/18 09:24:30;;;;;;;4.30;1.83;;;24.30;99.90;;;;;;5017026;28;20055;-85
2022/05/18 09:27:20;;;;;;;5.55;2.10;;;24.40;99.90;;;;;;5040713;28;20519;-84
2022/05/18 09:29:55;;;;;;;6.50;2.20;;;24.40;99.90;;;;;;5033091;28;20030;-84
2022/05/18 09:32:39;;;;;;;5.00;2.13;;;24.40;99.90;;;;;;5021812;28;20507;-84
2022/05/18 09:35:39;;;;;;;5.63;2.33;;;24.50;99.90;;;;;;5042065;28;20021;-83
2022/05/18 09:38:29;;;;;;;9.45;2.08;;;24.50;99.90;;;;;;5002489;28;20045;-83
2022/05/18 09:40:55;;;;;;;5.22;2.08;;;24.60;99.90;;;;;;5012698;28;20025;-85
2022/05/18 09:43:46;;;;;;;10.30;2.55;;;24.70;99.90;;;;;;5039819;28;20024;-85
2022/05/18 09:46:16;;;;;;;4.18;2.25;;;24.80;99.90;;;;;;5035540;28;20115;-86
2022/05/18 09:48:49;;;;;;;4.95;1.95;;;25.00;99.90;;;;;;5035961;28;20411;-86
2022/05/18 09:51:15;;;;;;;5.03;1.88;;;25.10;99.90;;;;;;5036173;28;20053;-86
2022/05/18 09:53:41;;;;;;;7.80;2.10;;;25.20;99.90;;;;;;5042612;28;20472;-85
2022/05/18 09:56:17;;;;;;;4.50;1.98;;;25.30;99.90;;;;;;5042919;28;20025;-86
2022/05/18 09:58:46;;;;;;;8.00;2.33;;;25.40;99.90;;;;;;5039809;28;20048;-85
2022/05/18 10:09:49;;;;;;;3.92;2.08;;;25.50;99.90;;;;;;5039731;28;20032;-85
2022/05/18 10:12:47;;;;;;;10.52;2.35;;;25.50;99.90;;;;;;5025938;28;20084;-85
2022/05/18 10:15:25;;;;;;;4.13;1.80;;;25.60;99.90;;;;;;5018774;28;20057;-86
2022/05/18 10:18:11;;;;;;;6.00;2.20;;;25.70;99.90;;;;;;5018502;28;20469;-82
2022/05/18 10:20:38;;;;;;;6.38;2.03;;;25.80;99.90;;;;;;4989551;28;20033;-88
2022/05/18 10:23:04;;;;;;;4.32;1.75;;;25.90;99.90;;;;;;5044139;28;20029;-86
2022/05/18 10:25:50;;;;;;;5.55;2.10;;;26.00;99.90;;;;;;5029167;28;20048;-82
2022/05/18 10:28:21;;;;;;;9.30;2.70;;;26.00;99.90;;;;;;5039749;28;20024;-82
2022/05/18 10:30:59;;;;;;;10.20;3.38;;;26.10;99.90;;;;;;5037638;28;20056;-83
2022/05/18 10:33:33;;;;;;;13.32;2.80;;;26.20;99.90;;;;;;5040748;28;20108;-83
2022/05/18 10:36:23;;;;;;;9.77;3.38;;;26.20;99.90;;;;;;5046297;28;20527;-84
2022/05/18 10:38:56;;;;;;;6.72;2.97;;;26.30;99.90;;;;;;5031160;28;20429;-86
2022/05/18 10:41:28;;;;;;;5.97;2.30;;;26.30;99.90;;;;;;5025884;28;20028;-92
2022/05/18 10:44:19;;;;;;;7.75;2.28;;;26.40;99.90;;;;;;5041253;28;20270;-88
2022/05/18 10:46:48;;;;;;;7.25;2.28;;;26.40;99.90;;;;;;5037465;28;20025;-86
2022/05/18 10:49:33;;;;;;;7.57;2.65;;;26.50;99.90;;;;;;5036201;28;20069;-86
2022/05/18 10:52:11;;;;;;;13.02;2.42;;;26.60;99.90;;;;;;5039532;28;20021;-88
2022/05/18 10:54:38;;;;;;;3.63;2.10;;;26.60;99.90;;;;;;5031034;28;20485;-89
2022/05/18 10:57:17;;;;;;;15.55;2.88;;;26.70;99.90;;;;;;5043457;28;20060;-85
2022/05/18 11:00:02;;;;;;;7.70;2.78;;;26.70;99.90;;;;;;5045866;28;20487;-86
2022/05/18 11:02:48;;;;;;;7.53;2.55;;;26.70;99.90;;;;;;5037611;28;20104;-83
2022/05/18 11:05:19;;;;;;;8.55;2.22;;;26.80;99.90;;;;;;5037069;28;20028;-84
2022/05/18 11:07:46;;;;;;;6.30;1.90;;;26.90;99.90;;;;;;5023905;28;20080;-88
2022/05/18 11:10:12;;;;;;;9.90;2.30;;;27.00;99.90;;;;;;5032875;28;20104;-85
2022/05/18 11:13:15;;;;;;;4.22;2.20;;;27.10;99.90;;;;;;5038181;28;20026;-84
2022/05/18 11:15:47;;;;;;;;;;;27.20;99.90;;;;;;5044851;28;20028;-88
2022/05/18 11:18:27;;;;;;;6.00;2.27;;;27.30;99.90;;;;;;5038965;28;20011;-87
2022/05/18 11:20:53;;;;;;;11.82;2.33;;;27.40;99.90;;;;;;5033474;28;20067;-89
2022/05/18 11:23:44;;;;;;;8.88;2.95;;;27.50;99.90;;;;;;5041736;28;20488;-89
2022/05/18 11:26:10;;;;;;;3.58;2.50;;;27.60;99.20;;;;;;5038739;28;20022;-90
2022/05/18 11:28:52;;;;;;;4.57;1.88;;;27.60;99.40;;;;;;5044028;28;20075;-90
2022/05/18 11:31:50;;;;;;;5.90;2.40;;;27.60;99.40;;;;;;5043321;28;20070;-87
2022/05/18 11:34:40;;;;;;;7.50;2.85;;;27.80;99.90;;;;;;5035867;28;20084;-89
2022/05/18 11:37:41;;;;;;;3.80;2.00;;;28.00;99.90;;;;;;5039682;28;20033;-90
2022/05/18 11:40:14;;;;;;;3.65;2.53;;;28.10;98.80;;;;;;5009218;28;20053;-93
2022/05/18 11:42:40;;;;;;;5.25;2.00;;;28.10;98.50;;;;;;5037515;28;20035;-92
2022/05/18 11:45:27;;;;;;;6.07;2.58;;;28.10;97.70;;;;;;5027593;28;20112;-91
2022/05/18 11:48:18;;;;;;;4.85;2.25;;;27.90;98.40;;;;;;5043012;28;20025;-92
2022/05/18 11:51:08;;;;;;;4.95;2.15;;;27.70;98.10;;;;;;5039049;28;20141;-93
2022/05/18 11:53:50;;;;;;;5.85;2.20;;;27.80;98.50;;;;;;5045865;28;20471;-87
2022/05/18 11:56:34;;;;;;;3.17;1.90;;;27.90;99.90;;;;;;5041014;28;20040;-91
2022/05/18 11:59:28;;;;;;;5.20;2.25;;;28.60;97.90;;;;;;5034491;28;20037;-93
2022/05/18 12:02:29;;;;;;;5.47;2.20;;;30.90;96.40;;;;;;5037698;28;20052;-90
2022/05/18 12:05:12;;;;;;;6.53;2.47;;;35.60;92.30;;;;;;5008709;28;20041;-90
2022/05/18 12:08:14;;;;;;;23.13;2.75;;;38.60;84.60;;;;;;5048655;28;20029;-86
2022/05/18 12:10:49;;;;;;;4.07;2.00;;;39.90;75.00;;;;;;5047977;28;20021;-91
2022/05/18 12:13:57;;;;;;;11.10;1.70;;;40.60;71.00;;;;;;5040277;28;20029;-90
2022/05/18 12:16:35;;;;;;;5.13;1.95;;;41.50;64.90;;;;;;5020053;28;20029;-89
2022/05/18 12:19:08;;;;;;;8.55;2.55;;;42.90;61.00;;;;;;5034561;28;20050;-93
2022/05/18 12:21:41;;;;;;;4.72;1.95;;;43.90;61.40;;;;;;5042243;28;20021;-91
2022/05/18 12:24:09;;;;;;;4.70;2.10;;;44.40;57.10;;;;;;5045561;28;20029;-89
2022/05/18 12:26:39;;;;;;;4.03;1.85;;;44.90;56.30;;;;;;5040762;28;20029;-86
2022/05/18 12:29:07;;;;;;;11.60;1.90;;;44.00;54.80;;;;;;5021419;28;20033;-84
2022/05/18 12:31:35;;;;;;;8.45;2.20;;;44.80;54.60;;;;;;5039973;28;20028;-88
2022/05/18 12:34:16;;;;;;;6.32;2.15;;;45.20;51.90;;;;;;5041590;28;20515;-94
2022/05/18 12:36:45;;;;;;;6.88;1.90;;;46.10;53.60;;;;;;5044230;28;20032;-90
2022/05/18 12:39:19;;;;;;;1.83;1.50;;;46.60;52.30;;;;;;5044832;28;20037;-87
2022/05/18 12:41:56;;;;;;;7.22;2.25;;;47.10;52.70;;;;;;5047003;28;20381;-85
2022/05/18 12:44:45;;;;;;;3.67;2.10;;;48.20;49.90;;;;;;5037320;28;20030;-86
2022/05/18 12:47:27;;;;;;;5.90;2.00;;;49.20;49.80;;;;;;5043135;28;20032;-85
2022/05/18 12:50:16;;;;;;;6.03;2.00;;;51.00;48.30;;;;;;5038917;28;20055;-95
2022/05/18 12:53:01;;;;;;;7.40;2.08;;;50.90;46.20;;;;;;5033851;28;20067;-92
2022/05/18 12:55:37;;;;;;;5.55;1.90;;;50.90;44.30;;;;;;5044856;28;20017;-90
2022/05/18 12:58:08;;;;;;;6.97;1.92;;;50.50;44.60;;;;;;5044010;28;20037;-94
2022/05/18 13:00:40;;;;;;;4.50;1.97;;;50.30;44.00;;;;;;5040748;28;20087;-95
2022/05/18 13:03:08;;;;;;;2.88;1.70;;;50.80;42.90;;;;;;5039369;28;20029;-88
2022/05/18 13:05:40;;;;;;;5.15;2.13;;;50.80;42.90;;;;;;5040811;28;20028;-91
2022/05/18 13:08:11;;;;;;;;;;;50.40;43.50;;;;;;5022039;28;20499;-86
2022/05/18 13:10:38;;;;;;;6.07;2.33;;;49.90;43.50;;;;;;5043637;28;20416;-86
2022/05/18 13:13:19;;;;;;;3.85;2.03;;;48.10;44.20;;;;;;5021824;28;20032;-88
2022/05/18 13:15:57;;;;;;;4.53;2.13;;;48.40;44.20;;;;;;5033505;28;20030;-88
2022/05/18 13:18:35;;;;;;;6.70;2.20;;;49.20;43.00;;;;;;5038290;28;20034;-89
2022/05/18 13:21:07;;;;;;;7.53;2.30;;;49.60;42.40;;;;;;5022049;28;20467;-89
2022/05/18 13:23:42;;;;;;;8.13;2.22;;;50.00;42.90;;;;;;5021578;28;20052;-90
2022/05/18 13:26:12;;;;;;;4.60;2.00;;;49.70;42.20;;;;;;5037908;28;20599;-92
2022/05/18 13:28:39;;;;;;;6.72;1.95;;;48.90;43.20;;;;;;5045139;28;20024;-89
2022/05/18 13:31:06;;;;;;;6.63;2.40;;;48.40;42.80;;;;;;5045089;28;20071;-91